map of WLS home
WLS - Airport
Location
City:  Wallis Island, Wallis and Futuna Islands
Name:Hihifo
ICAO:NLWW
IATA:WLS

Details
Type:Airport (Aerodrome, Airfield)
Latitude:1314'18"S (-13.238332)
Longitude:17611'56"W (-176.198888)
Elevation:75 ft (23 m)
Variation:11.53E (WMM2015 magnetic declination)
0.04 annual change
Runways:1
Longest:6890 × 148 ft (2100 × 45 m), paved

Time
Time Zone:UTC+12
Local Time:

Weather
TAF:NLWW 182300Z 1900/1924 10012KT 9999 SCT025
TEMPO 1914/1924 VRB15G25KT 1000 +TSRA BKN012 BKN020CB

Related Locations
Nearby:
Farthest:DRRC: 12429 mi / 20003 km
Dogondoutchi [Dogondoutchi Airport], NE

Find:

   beyond  
but within

Other Information
Maps:
NOTAMs:
Sources:

  
flag of Wallis and Futuna Islands   

Sectional Chart

Flight Planning
at skyvector.com

Satellite Image

Google Maps Satellite view

 

Copyright © 2004-2018 Karl L. Swartz. All rights reserved.
The Great Circle Mapper name and logo are trademarks of the Great Circle Mapper.
All other trademarks mentioned herein belong to their respective owners.
Please see credits for attibutions and further copyright information.

  Follow gcmap on Facebook Follow gcmap on Twitter Follow gcmap on Google+ GCmap on LinkedIn

hCard Microformat

Geo Microformat